Sea Cloud II — 9HUE6 — position and weather

sailwx.info

Track history (hours):
 
Tides and Currents Weather Stations Pressure Air Temp Water Temp Dewpoint Dewpoint Depression Visibility Wind Speed Wind Dir Waves Ship Positions

Sea Cloud II

Ship's website: http://www.seacloud.com/en/the-ships/sea-cloud-ii.html

Last reported at 2018-Nov-10 17:36 UTC. Time now 2018-Nov-18 17:21 UTC.
Position N 28°36' W 013°40'.

Length 117 m; draft 6 m.

Type: Passenger vessel. MMSI: 248953000.

Date/timePositionNaut miles runAvg speedWind from/ knotsBaromVisibWave heightAir tempDewpointWater temp
2018-Nov-10 17:36N 28°36' W 013°40'7 5.9
2018-Nov-10 16:20N 28°43' W 013°39'2 5.9
2018-Nov-10 16:01N 28°45' W 013°38'3 6.0
2018-Nov-10 15:32N 28°47' W 013°36'3 6.4
2018-Nov-10 15:02N 28°50' W 013°35'3 6.1
2018-Nov-10 14:32N 28°53' W 013°34'5 9.6
2018-Nov-10 14:02N 28°58' W 013°32'0 0.5
2018-Nov-10 13:28N 28°58' W 013°32'0 0.0
2018-Nov-10 12:58N 28°58' W 013°32'0 0.0
2018-Nov-10 11:34N 28°58' W 013°32'0 0.0
2018-Nov-10 11:28N 28°58' W 013°32'0 0.0
2018-Nov-10 10:58N 28°58' W 013°32'0 0.0
2018-Nov-10 10:28N 28°58' W 013°32'0 0.0
2018-Nov-10 09:58N 28°58' W 013°32'0 0.0
2018-Nov-10 09:28N 28°58' W 013°32'0 0.0
2018-Nov-10 08:58N 28°58' W 013°32'0 0.0
2018-Nov-10 08:28N 28°58' W 013°32'0 0.0
2018-Nov-10 07:52N 28°58' W 013°32'0 0.0
2018-Nov-10 07:31N 28°58' W 013°32'0 0.0
2018-Nov-10 06:58N 28°58' W 013°32'0 0.0
2018-Nov-10 06:28N 28°58' W 013°32'0 0.0
2018-Nov-10 05:58N 28°58' W 013°32'0 0.0
2018-Nov-10 05:28N 28°58' W 013°32'0 0.0
2018-Nov-10 04:58N 28°58' W 013°32'0 0.0
2018-Nov-10 04:28N 28°58' W 013°32'0 0.0
2018-Nov-10 03:58N 28°58' W 013°32'0 0.0
2018-Nov-10 03:07N 28°58' W 013°32'0 0.0
2018-Nov-10 02:58N 28°58' W 013°32'0 0.0
2018-Nov-10 02:28N 28°58' W 013°32'0 0.0
2018-Nov-10 01:58N 28°58' W 013°32'0 0.0
2018-Nov-10 01:28N 28°58' W 013°32'0 0.0
2018-Nov-10 00:58N 28°58' W 013°32'0 0.0
2018-Nov-10 00:16N 28°58' W 013°32'0 0.0
2018-Nov-09 23:52N 28°58' W 013°32'0 0.0
2018-Nov-09 23:28N 28°58' W 013°32'0 0.0
2018-Nov-09 23:01N 28°58' W 013°32'0 0.0
2018-Nov-09 22:28N 28°58' W 013°32'0 0.0
2018-Nov-09 21:58N 28°58' W 013°32'0 0.0
2018-Nov-09 21:04N 28°58' W 013°32'0 0.1
2018-Nov-09 20:58N 28°58' W 013°32'0 0.0
2018-Nov-09 20:32N 28°58' W 013°32'0 0.6
2018-Nov-09 20:02N 28°58' W 013°32'4 5.6
2018-Nov-09 19:22N 28°55' W 013°29'2 6.5
2018-Nov-09 19:02N 28°55' W 013°26'4 6.8
2018-Nov-09 18:31N 28°53' W 013°23'510.5
2018-Nov-09 18:01N 28°52' W 013°17'4 8.0
2018-Nov-09 17:32N 28°52' W 013°13'3 6.1
2018-Nov-09 17:00N 28°54' W 013°10'3 5.8
2018-Nov-09 16:32N 28°56' W 013°07'  
2018-Nov-05 23:28N 36°33' W 006°20'3 6.8
2018-Nov-05 23:03N 36°33' W 006°17'0 8.1
2018-Nov-05 23:00N 36°33' W 006°17'1 2.2
2018-Nov-05 22:27N 36°32' W 006°17'0 0.0
2018-Nov-05 22:03N 36°32' W 006°17'0 0.0
2018-Nov-05 22:00N 36°32' W 006°17'0 0.0
2018-Nov-05 21:30N 36°32' W 006°17'0 0.0
2018-Nov-05 21:03N 36°32' W 006°17'0 0.0
2018-Nov-05 20:57N 36°32' W 006°17'0 0.0
2018-Nov-05 20:30N 36°32' W 006°17'0 0.0
2018-Nov-05 20:03N 36°32' W 006°17'0 0.0
2018-Nov-05 20:00N 36°32' W 006°17'0 0.0
2018-Nov-05 19:21N 36°32' W 006°17'0 0.0
2018-Nov-05 19:03N 36°32' W 006°17'0 0.0
2018-Nov-05 19:00N 36°32' W 006°17'0 0.0
2018-Nov-05 18:30N 36°32' W 006°17'0 0.0
2018-Nov-05 18:03N 36°32' W 006°17'0 0.0
2018-Nov-05 18:00N 36°32' W 006°17'0 0.0
2018-Nov-05 17:30N 36°32' W 006°17'0 0.0
2018-Nov-05 16:57N 36°32' W 006°17'0 0.0
2018-Nov-05 16:24N 36°32' W 006°17'0 0.0
2018-Nov-05 16:00N 36°32' W 006°17'0 0.0
2018-Nov-05 15:24N 36°32' W 006°17'0 0.0
2018-Nov-05 15:00N 36°32' W 006°17'0 0.0
2018-Nov-05 14:24N 36°32' W 006°17'0 0.0
2018-Nov-05 14:03N 36°32' W 006°17'0 0.0
2018-Nov-05 13:27N 36°32' W 006°17'0 0.0
2018-Nov-05 13:03N 36°32' W 006°17'0 0.0
2018-Nov-05 12:57N 36°32' W 006°17'0 0.0
2018-Nov-05 12:27N 36°32' W 006°17'0 0.0
2018-Nov-05 12:03N 36°32' W 006°17'0 0.0
2018-Nov-05 11:57N 36°32' W 006°17'0 0.3
2018-Nov-05 11:28N 36°32' W 006°17'2 3.8
2018-Nov-05 11:03N 36°33' W 006°18'0 7.8
2018-Nov-05 11:00N 36°33' W 006°18'2 4.2
2018-Nov-05 10:28N 36°34' W 006°21'1 3.1
2018-Nov-05 10:03N 36°33' W 006°23'0 3.8
2018-Nov-05 10:00N 36°33' W 006°23'2 4.0
2018-Nov-05 09:30N 36°32' W 006°25'  
2018-Nov-02 11:58N 37°12' W 000°47'12 3.6
2018-Nov-02 08:40N 37°24' W 000°51'3 2.5
2018-Nov-02 07:37N 37°26' W 000°49'1 5.8
2018-Nov-02 07:23N 37°26' W 000°47'2 5.5
2018-Nov-02 07:04N 37°26' W 000°45'0 5.7
2018-Nov-02 07:00N 37°26' W 000°44'3 5.7
2018-Nov-02 06:30N 37°27' W 000°41'7 6.2
2018-Nov-02 05:19N 37°27' W 000°32'7 8.0
2018-Nov-02 04:28N 37°29' W 000°23'710.2
2018-Nov-02 03:49N 37°33' W 000°17'310.1
2018-Nov-02 03:29N 37°36' W 000°14'410.0
2018-Nov-02 03:03N 37°39' W 000°10'0 9.9
2018-Nov-02 03:01N 37°39' W 000°10'107 7.7
2018-Nov-01 13:11N 38°51' E 001°31'1 6.2
2018-Nov-01 13:03N 38°51' E 001°31'0 3.7
2018-Nov-01 12:59N 38°52' E 001°30'2 4.8
2018-Nov-01 12:31N 38°53' E 001°28'1 3.0
2018-Nov-01 12:02N 38°54' E 001°27'0 0.0
2018-Nov-01 11:59N 38°54' E 001°27'0 0.0
2018-Nov-01 11:29N 38°54' E 001°27'0 0.0
2018-Nov-01 11:02N 38°54' E 001°27'0 0.0
2018-Nov-01 10:59N 38°54' E 001°27'0 0.0
2018-Nov-01 10:29N 38°54' E 001°27'0 0.0
2018-Nov-01 10:02N 38°54' E 001°27'0 0.0
2018-Nov-01 09:59N 38°54' E 001°27'0 0.0
2018-Nov-01 09:29N 38°54' E 001°27'0 0.0
2018-Nov-01 09:02N 38°54' E 001°27'0 0.0
2018-Nov-01 08:59N 38°54' E 001°27'0 0.0
2018-Nov-01 08:29N 38°54' E 001°27'0 0.0
2018-Nov-01 08:02N 38°54' E 001°27'0 0.1
2018-Nov-01 07:59N 38°54' E 001°27'0 0.0
2018-Nov-01 07:29N 38°54' E 001°27'0 0.6
2018-Nov-01 07:00N 38°54' E 001°27'1 2.9
2018-Nov-01 06:30N 38°54' E 001°29'2 5.2
2018-Nov-01 06:03N 38°54' E 001°31'0 4.5
2018-Nov-01 06:00N 38°54' E 001°32'3 5.9
2018-Nov-01 05:28N 38°55' E 001°36'3 6.1
2018-Nov-01 05:02N 38°57' E 001°38'0 6.5
2018-Nov-01 05:00N 38°57' E 001°38'4 6.6
2018-Nov-01 04:21N 39°00' E 001°42'  
Track history (hours):
 
Tides and Currents Weather Stations Pressure Air Temp Water Temp Dewpoint Dewpoint Depression Visibility Wind Speed Wind Dir Waves Ship Positions

Sea Cloud II

Ship's website: http://www.seacloud.com/en/the-ships/sea-cloud-ii.html

Last reported at 2018-Nov-10 17:36 UTC. Time now 2018-Nov-18 17:21 UTC.
Position N 28°36' W 013°40'.

Length 117 m; draft 6 m.

Type: Passenger vessel. MMSI: 248953000.

Date/timePositionNaut miles runAvg speedWind from/ knotsBaromVisibWave heightAir tempDewpointWater temp
2018-Nov-10 17:36N 28°36' W 013°40'7 5.9
2018-Nov-10 16:20N 28°43' W 013°39'2 5.9
2018-Nov-10 16:01N 28°45' W 013°38'3 6.0
2018-Nov-10 15:32N 28°47' W 013°36'3 6.4
2018-Nov-10 15:02N 28°50' W 013°35'3 6.1
2018-Nov-10 14:32N 28°53' W 013°34'5 9.6
2018-Nov-10 14:02N 28°58' W 013°32'0 0.5
2018-Nov-10 13:28N 28°58' W 013°32'0 0.0
2018-Nov-10 12:58N 28°58' W 013°32'0 0.0
2018-Nov-10 11:34N 28°58' W 013°32'0 0.0
2018-Nov-10 11:28N 28°58' W 013°32'0 0.0
2018-Nov-10 10:58N 28°58' W 013°32'0 0.0
2018-Nov-10 10:28N 28°58' W 013°32'0 0.0
2018-Nov-10 09:58N 28°58' W 013°32'0 0.0
2018-Nov-10 09:28N 28°58' W 013°32'0 0.0
2018-Nov-10 08:58N 28°58' W 013°32'0 0.0
2018-Nov-10 08:28N 28°58' W 013°32'0 0.0
2018-Nov-10 07:52N 28°58' W 013°32'0 0.0
2018-Nov-10 07:31N 28°58' W 013°32'0 0.0
2018-Nov-10 06:58N 28°58' W 013°32'0 0.0
2018-Nov-10 06:28N 28°58' W 013°32'0 0.0
2018-Nov-10 05:58N 28°58' W 013°32'0 0.0
2018-Nov-10 05:28N 28°58' W 013°32'0 0.0
2018-Nov-10 04:58N 28°58' W 013°32'0 0.0
2018-Nov-10 04:28N 28°58' W 013°32'0 0.0
2018-Nov-10 03:58N 28°58' W 013°32'0 0.0
2018-Nov-10 03:07N 28°58' W 013°32'0 0.0
2018-Nov-10 02:58N 28°58' W 013°32'0 0.0
2018-Nov-10 02:28N 28°58' W 013°32'0 0.0
2018-Nov-10 01:58N 28°58' W 013°32'0 0.0
2018-Nov-10 01:28N 28°58' W 013°32'0 0.0
2018-Nov-10 00:58N 28°58' W 013°32'0 0.0
2018-Nov-10 00:16N 28°58' W 013°32'0 0.0
2018-Nov-09 23:52N 28°58' W 013°32'0 0.0
2018-Nov-09 23:28N 28°58' W 013°32'0 0.0
2018-Nov-09 23:01N 28°58' W 013°32'0 0.0
2018-Nov-09 22:28N 28°58' W 013°32'0 0.0
2018-Nov-09 21:58N 28°58' W 013°32'0 0.0
2018-Nov-09 21:04N 28°58' W 013°32'0 0.1
2018-Nov-09 20:58N 28°58' W 013°32'0 0.0
2018-Nov-09 20:32N 28°58' W 013°32'0 0.6
2018-Nov-09 20:02N 28°58' W 013°32'4 5.6
2018-Nov-09 19:22N 28°55' W 013°29'2 6.5
2018-Nov-09 19:02N 28°55' W 013°26'4 6.8
2018-Nov-09 18:31N 28°53' W 013°23'510.5
2018-Nov-09 18:01N 28°52' W 013°17'4 8.0
2018-Nov-09 17:32N 28°52' W 013°13'3 6.1
2018-Nov-09 17:00N 28°54' W 013°10'3 5.8
2018-Nov-09 16:32N 28°56' W 013°07'  
2018-Nov-05 23:28N 36°33' W 006°20'3 6.8
2018-Nov-05 23:03N 36°33' W 006°17'0 8.1
2018-Nov-05 23:00N 36°33' W 006°17'1 2.2
2018-Nov-05 22:27N 36°32' W 006°17'0 0.0
2018-Nov-05 22:03N 36°32' W 006°17'0 0.0
2018-Nov-05 22:00N 36°32' W 006°17'0 0.0
2018-Nov-05 21:30N 36°32' W 006°17'0 0.0
2018-Nov-05 21:03N 36°32' W 006°17'0 0.0
2018-Nov-05 20:57N 36°32' W 006°17'0 0.0
2018-Nov-05 20:30N 36°32' W 006°17'0 0.0
2018-Nov-05 20:03N 36°32' W 006°17'0 0.0
2018-Nov-05 20:00N 36°32' W 006°17'0 0.0
2018-Nov-05 19:21N 36°32' W 006°17'0 0.0
2018-Nov-05 19:03N 36°32' W 006°17'0 0.0
2018-Nov-05 19:00N 36°32' W 006°17'0 0.0
2018-Nov-05 18:30N 36°32' W 006°17'0 0.0
2018-Nov-05 18:03N 36°32' W 006°17'0 0.0
2018-Nov-05 18:00N 36°32' W 006°17'0 0.0
2018-Nov-05 17:30N 36°32' W 006°17'0 0.0
2018-Nov-05 16:57N 36°32' W 006°17'0 0.0
2018-Nov-05 16:24N 36°32' W 006°17'0 0.0
2018-Nov-05 16:00N 36°32' W 006°17'0 0.0
2018-Nov-05 15:24N 36°32' W 006°17'0 0.0
2018-Nov-05 15:00N 36°32' W 006°17'0 0.0
2018-Nov-05 14:24N 36°32' W 006°17'0 0.0
2018-Nov-05 14:03N 36°32' W 006°17'0 0.0
2018-Nov-05 13:27N 36°32' W 006°17'0 0.0
2018-Nov-05 13:03N 36°32' W 006°17'0 0.0
2018-Nov-05 12:57N 36°32' W 006°17'0 0.0
2018-Nov-05 12:27N 36°32' W 006°17'0 0.0
2018-Nov-05 12:03N 36°32' W 006°17'0 0.0
2018-Nov-05 11:57N 36°32' W 006°17'0 0.3
2018-Nov-05 11:28N 36°32' W 006°17'2 3.8
2018-Nov-05 11:03N 36°33' W 006°18'0 7.8
2018-Nov-05 11:00N 36°33' W 006°18'2 4.2
2018-Nov-05 10:28N 36°34' W 006°21'1 3.1
2018-Nov-05 10:03N 36°33' W 006°23'0 3.8
2018-Nov-05 10:00N 36°33' W 006°23'2 4.0
2018-Nov-05 09:30N 36°32' W 006°25'  
2018-Nov-02 11:58N 37°12' W 000°47'12 3.6
2018-Nov-02 08:40N 37°24' W 000°51'3 2.5
2018-Nov-02 07:37N 37°26' W 000°49'1 5.8
2018-Nov-02 07:23N 37°26' W 000°47'2 5.5
2018-Nov-02 07:04N 37°26' W 000°45'0 5.7
2018-Nov-02 07:00N 37°26' W 000°44'3 5.7
2018-Nov-02 06:30N 37°27' W 000°41'7 6.2
2018-Nov-02 05:19N 37°27' W 000°32'7 8.0
2018-Nov-02 04:28N 37°29' W 000°23'710.2
2018-Nov-02 03:49N 37°33' W 000°17'310.1
2018-Nov-02 03:29N 37°36' W 000°14'410.0
2018-Nov-02 03:03N 37°39' W 000°10'0 9.9
2018-Nov-02 03:01N 37°39' W 000°10'107 7.7
2018-Nov-01 13:11N 38°51' E 001°31'1 6.2
2018-Nov-01 13:03N 38°51' E 001°31'0 3.7
2018-Nov-01 12:59N 38°52' E 001°30'2 4.8
2018-Nov-01 12:31N 38°53' E 001°28'1 3.0
2018-Nov-01 12:02N 38°54' E 001°27'0 0.0
2018-Nov-01 11:59N 38°54' E 001°27'0 0.0
2018-Nov-01 11:29N 38°54' E 001°27'0 0.0
2018-Nov-01 11:02N 38°54' E 001°27'0 0.0
2018-Nov-01 10:59N 38°54' E 001°27'0 0.0
2018-Nov-01 10:29N 38°54' E 001°27'0 0.0
2018-Nov-01 10:02N 38°54' E 001°27'0 0.0
2018-Nov-01 09:59N 38°54' E 001°27'0 0.0
2018-Nov-01 09:29N 38°54' E 001°27'0 0.0
2018-Nov-01 09:02N 38°54' E 001°27'0 0.0
2018-Nov-01 08:59N 38°54' E 001°27'0 0.0
2018-Nov-01 08:29N 38°54' E 001°27'0 0.0
2018-Nov-01 08:02N 38°54' E 001°27'0 0.1
2018-Nov-01 07:59N 38°54' E 001°27'0 0.0
2018-Nov-01 07:29N 38°54' E 001°27'0 0.6
2018-Nov-01 07:00N 38°54' E 001°27'1 2.9
2018-Nov-01 06:30N 38°54' E 001°29'2 5.2
2018-Nov-01 06:03N 38°54' E 001°31'0 4.5
2018-Nov-01 06:00N 38°54' E 001°32'3 5.9
2018-Nov-01 05:28N 38°55' E 001°36'3 6.1
2018-Nov-01 05:02N 38°57' E 001°38'0 6.5
2018-Nov-01 05:00N 38°57' E 001°38'4 6.6
2018-Nov-01 04:21N 39°00' E 001°42'  

Dump ship's entire track history